Orbital elements of IRIDIUM 33 DEB
| Launched | 13 September 1997 |
| Flight ended | – |
| Launch site | Tyuratam Missile and Space Center, Kazakhstan (Also known as Baikonur Cosmodrome) |
| Owner | United States |
| NORAD ID | 36011 |
| Date fetched |
Epoch osculation |
Inc. [°] |
Ecc. | RA asc node [hr] |
Arg Peri. [°] |
Mean anom [°] |
Mean motion [rev/day] |
Abs. mag |
| Date fetched |
Epoch osculation |
Inc. [°] |
Ecc. | RA asc node [hr] |
Arg Peri. [°] |
Mean anom [°] |
Mean motion [rev/day] |
Abs. mag |
| 2026 May 06 17:57 | 2026 May 04 09:04:32 | 86.3402 | 0.00205 | 22.2775 | 108.9305 | 13.9441 | 14.41821 | – |
| 2026 May 05 17:57 | 2026 May 04 09:04:32 | 86.3402 | 0.00205 | 22.2775 | 108.9305 | 13.9441 | 14.41821 | – |
| 2026 May 04 17:57 | 2026 Apr 29 09:09:12 | 86.3415 | 0.00201 | 22.4207 | 123.4807 | 13.9441 | 14.41821 | – |
| 2026 May 03 17:57 | 2026 Apr 29 09:09:12 | 86.3415 | 0.00201 | 22.4207 | 123.4807 | 13.9441 | 14.41821 | – |
| 2026 May 02 17:57 | 2026 Apr 29 09:09:12 | 86.3415 | 0.00201 | 22.4207 | 123.4807 | 13.9441 | 14.41821 | – |
| 2026 May 01 17:56 | 2026 Apr 29 09:09:12 | 86.3415 | 0.00201 | 22.4207 | 123.4807 | 13.9441 | 14.41821 | – |
| 2026 Apr 30 17:56 | 2026 Apr 29 09:09:12 | 86.3415 | 0.00201 | 22.4207 | 123.4807 | 13.9441 | 14.41821 | – |
| 2026 Apr 29 17:57 | 2026 Apr 24 09:13:24 | 86.3414 | 0.00197 | 22.5639 | 139.0347 | 13.9441 | 14.41821 | – |
| 2026 Apr 28 17:56 | 2026 Apr 24 09:13:24 | 86.3414 | 0.00197 | 22.5639 | 139.0347 | 13.9441 | 14.41821 | – |
| 2026 Apr 27 17:58 | 2026 Apr 24 09:13:24 | 86.3414 | 0.00197 | 22.5639 | 139.0347 | 13.9441 | 14.41821 | – |
| 2026 Apr 26 17:58 | 2026 Apr 24 09:13:24 | 86.3414 | 0.00197 | 22.5639 | 139.0347 | 13.9441 | 14.41821 | – |
| 2026 Apr 25 17:58 | 2026 Apr 24 09:13:24 | 86.3414 | 0.00197 | 22.5639 | 139.0347 | 13.9441 | 14.41821 | – |
| 2026 Apr 24 17:59 | 2026 Apr 24 09:13:24 | 86.3414 | 0.00197 | 22.5639 | 139.0347 | 13.9441 | 14.41821 | – |
| 2026 Apr 23 17:57 | 2026 Apr 18 23:01:59 | 86.3426 | 0.00190 | 22.7193 | 155.8273 | 13.9441 | 14.41821 | – |
| 2026 Apr 22 17:57 | 2026 Apr 18 23:01:59 | 86.3426 | 0.00190 | 22.7193 | 155.8273 | 13.9441 | 14.41821 | – |
| 2026 Apr 21 17:57 | 2026 Apr 18 23:01:59 | 86.3426 | 0.00190 | 22.7193 | 155.8273 | 13.9441 | 14.41821 | – |
| 2026 Apr 20 17:57 | 2026 Apr 18 23:01:59 | 86.3426 | 0.00190 | 22.7193 | 155.8273 | 13.9441 | 14.41821 | – |
| 2026 Apr 19 17:58 | 2026 Apr 18 23:01:59 | 86.3426 | 0.00190 | 22.7193 | 155.8273 | 13.9441 | 14.41821 | – |
| 2026 Apr 18 17:56 | 2026 Apr 12 10:44:53 | 86.3437 | 0.00181 | 22.9058 | 177.0030 | 13.9441 | 14.41821 | – |
| 2026 Apr 16 17:57 | 2026 Apr 12 10:44:53 | 86.3437 | 0.00181 | 22.9058 | 177.0030 | 13.9441 | 14.41821 | – |
| 2026 Apr 14 17:57 | 2026 Apr 12 10:44:53 | 86.3437 | 0.00181 | 22.9058 | 177.0030 | 13.9441 | 14.41821 | – |
| 2026 Apr 13 17:57 | 2026 Apr 12 10:44:53 | 86.3437 | 0.00181 | 22.9058 | 177.0030 | 13.9441 | 14.41821 | – |
| 2026 Apr 12 17:57 | 2026 Apr 05 23:18:17 | 86.3441 | 0.00173 | 23.0912 | 199.4550 | 13.9441 | 14.41821 | – |
| 2026 Apr 11 17:57 | 2026 Apr 05 23:18:17 | 86.3441 | 0.00173 | 23.0912 | 199.4550 | 13.9441 | 14.41821 | – |
| 2026 Apr 10 17:58 | 2026 Apr 05 23:18:17 | 86.3441 | 0.00173 | 23.0912 | 199.4550 | 13.9441 | 14.41821 | – |
| 2026 Apr 09 18:01 | 2026 Apr 05 23:18:17 | 86.3441 | 0.00173 | 23.0912 | 199.4550 | 13.9441 | 14.41821 | – |